createdAt,value
2017-07-05T00:01:05.971Z,99.90
2017-07-05T00:03:33.834Z,99.90
2017-07-05T00:06:01.401Z,99.90
2017-07-05T00:08:28.950Z,99.90
2017-07-05T00:10:56.491Z,99.90
2017-07-05T00:13:23.992Z,99.90
2017-07-05T00:15:51.513Z,99.90
2017-07-05T00:18:19.022Z,99.90
2017-07-05T00:20:46.545Z,99.90
2017-07-05T00:23:14.397Z,99.90
2017-07-05T00:25:41.937Z,99.90
2017-07-05T00:28:09.723Z,99.90
2017-07-05T00:30:37.235Z,99.90
2017-07-05T00:33:04.826Z,99.90
2017-07-05T00:35:32.334Z,99.90
2017-07-05T00:38:00.660Z,99.90
2017-07-05T00:40:28.194Z,99.90
2017-07-05T00:42:55.722Z,99.90
2017-07-05T00:45:24.362Z,99.90
2017-07-05T00:47:51.910Z,99.90
2017-07-05T00:50:19.697Z,99.90
2017-07-05T00:52:47.286Z,99.90
2017-07-05T00:55:15.614Z,99.90
2017-07-05T00:57:43.477Z,99.90
2017-07-05T01:00:11.011Z,99.90
2017-07-05T01:02:38.526Z,99.90
2017-07-05T01:05:06.067Z,99.90
2017-07-05T01:07:33.584Z,99.90
2017-07-05T01:10:01.153Z,99.90
2017-07-05T01:12:28.657Z,99.90
2017-07-05T01:14:57.300Z,99.90
2017-07-05T01:17:24.836Z,99.90
2017-07-05T01:19:52.343Z,99.90
2017-07-05T01:22:19.901Z,99.90
2017-07-05T01:24:47.744Z,99.90
2017-07-05T01:27:15.272Z,99.90
2017-07-05T01:29:42.777Z,99.90
2017-07-05T01:32:10.305Z,99.90
2017-07-05T01:34:37.810Z,99.90
2017-07-05T01:37:06.126Z,99.90
2017-07-05T01:39:33.669Z,99.90
2017-07-05T01:42:01.257Z,99.90
2017-07-05T01:44:28.766Z,99.90
2017-07-05T01:46:56.327Z,99.90
2017-07-05T01:49:23.884Z,99.90
2017-07-05T01:51:51.534Z,99.90
2017-07-05T01:54:19.849Z,99.90
2017-07-05T01:56:47.385Z,99.90
2017-07-05T01:59:14.966Z,99.90
2017-07-05T02:01:42.738Z,99.90
2017-07-05T02:04:10.601Z,99.90
2017-07-05T02:06:38.110Z,99.90
2017-07-05T02:09:06.406Z,99.90
2017-07-05T02:11:33.916Z,99.90
2017-07-05T02:14:01.481Z,99.90
2017-07-05T02:16:29.044Z,99.90
2017-07-05T02:18:56.565Z,99.90
2017-07-05T02:21:24.102Z,99.90
2017-07-05T02:23:51.667Z,99.90
2017-07-05T02:26:19.464Z,99.90
2017-07-05T02:28:47.007Z,99.90
2017-07-05T02:31:14.547Z,99.90
2017-07-05T02:33:42.089Z,99.90
2017-07-05T02:36:09.681Z,99.90
2017-07-05T02:38:37.438Z,99.90
2017-07-05T02:41:05.298Z,99.90
2017-07-05T02:43:32.853Z,99.90
2017-07-05T02:46:00.617Z,99.90
2017-07-05T02:48:28.158Z,99.90
2017-07-05T02:50:55.662Z,99.90
2017-07-05T02:53:23.239Z,99.90
2017-07-05T02:55:51.513Z,99.90
2017-07-05T02:58:19.865Z,99.90
2017-07-05T03:00:47.702Z,99.90
2017-07-05T03:03:15.233Z,99.90
2017-07-05T03:05:42.760Z,99.90
2017-07-05T03:08:11.062Z,99.90
2017-07-05T03:10:38.618Z,99.90
2017-07-05T03:13:06.133Z,99.90
2017-07-05T03:15:33.689Z,99.90
2017-07-05T03:18:01.230Z,99.90
2017-07-05T03:20:28.770Z,99.90
2017-07-05T03:22:56.309Z,99.90
2017-07-05T03:25:23.830Z,99.90
2017-07-05T03:27:52.137Z,99.90
2017-07-05T03:30:19.693Z,99.90
2017-07-05T03:32:47.220Z,99.90
2017-07-05T03:35:15.538Z,99.90
2017-07-05T03:37:43.098Z,99.90
2017-07-05T03:40:10.642Z,99.90
2017-07-05T03:42:38.509Z,99.90
2017-07-05T03:45:06.025Z,99.90
2017-07-05T03:47:34.407Z,99.90
2017-07-05T03:50:02.907Z,99.90
2017-07-05T03:52:30.469Z,99.90
2017-07-05T03:54:58.044Z,99.90
2017-07-05T03:57:25.850Z,99.90
2017-07-05T03:59:53.461Z,99.90
2017-07-05T04:02:22.084Z,99.90
2017-07-05T04:04:49.678Z,99.90
2017-07-05T04:07:18.207Z,99.90
2017-07-05T04:09:45.835Z,99.90
2017-07-05T04:12:13.404Z,99.90
2017-07-05T04:14:41.214Z,99.90
2017-07-05T04:17:08.793Z,99.90
2017-07-05T04:19:38.274Z,99.90
2017-07-05T04:22:05.803Z,99.90
2017-07-05T04:24:33.342Z,99.90
2017-07-05T04:27:00.877Z,99.90
2017-07-05T04:29:28.422Z,99.90
2017-07-05T04:31:56.953Z,99.90
2017-07-05T04:34:24.464Z,99.90
2017-07-05T04:36:52.245Z,99.90
2017-07-05T04:39:20.038Z,99.90
2017-07-05T04:41:47.591Z,99.90
2017-07-05T04:44:15.122Z,99.90
2017-07-05T04:46:42.641Z,99.90
2017-07-05T04:49:10.945Z,99.90
2017-07-05T04:51:38.448Z,99.90
2017-07-05T04:54:06.301Z,99.90
2017-07-05T04:56:33.876Z,99.90
2017-07-05T04:59:01.753Z,99.90
2017-07-05T05:01:29.289Z,99.90
2017-07-05T05:03:56.858Z,99.90
2017-07-05T05:06:24.371Z,99.90
2017-07-05T05:08:51.934Z,99.90
2017-07-05T05:11:19.532Z,99.90
2017-07-05T05:13:47.070Z,99.90
2017-07-05T05:16:14.622Z,99.90
2017-07-05T05:18:42.126Z,99.90
2017-07-05T05:21:10.420Z,99.90
2017-07-05T05:23:37.929Z,99.90
2017-07-05T05:26:05.506Z,99.90
2017-07-05T05:28:33.366Z,99.90
2017-07-05T05:31:00.928Z,93.00
2017-07-05T05:33:28.484Z,82.70
2017-07-05T05:35:55.990Z,66.40
2017-07-05T05:38:23.554Z,68.40
2017-07-05T05:40:51.072Z,68.90
2017-07-05T05:43:19.464Z,73.70
2017-07-05T05:45:46.989Z,73.70
2017-07-05T05:48:14.817Z,85.90
2017-07-05T05:50:42.326Z,91.90
2017-07-05T05:53:10.616Z,91.90
2017-07-05T05:55:38.153Z,91.80
2017-07-05T05:58:06.448Z,60.50
2017-07-05T06:00:33.981Z,60.40
2017-07-05T06:03:02.537Z,50.20
2017-07-05T06:05:30.101Z,50.30
2017-07-05T06:07:57.609Z,58.00
2017-07-05T06:10:25.201Z,52.60
2017-07-05T06:12:52.780Z,42.50
2017-07-05T06:15:20.285Z,37.20
2017-07-05T06:17:47.838Z,31.40
2017-07-05T06:20:15.357Z,32.40
2017-07-05T06:22:42.914Z,31.20
2017-07-05T06:25:10.422Z,30.30
2017-07-05T06:27:37.999Z,36.20
2017-07-05T06:30:06.381Z,52.50
2017-07-05T06:32:33.890Z,51.20
2017-07-05T06:35:01.722Z,51.30
2017-07-05T06:37:29.249Z,49.00
2017-07-05T06:39:56.802Z,54.10
2017-07-05T06:42:24.306Z,56.80
2017-07-05T06:44:52.649Z,56.40
2017-07-05T06:47:20.164Z,55.90
2017-07-05T06:49:47.728Z,58.50
2017-07-05T06:52:15.260Z,56.40
2017-07-05T06:54:43.572Z,51.00
2017-07-05T06:57:11.356Z,51.00
2017-07-05T06:59:38.857Z,49.70
2017-07-05T07:02:06.389Z,43.70
2017-07-05T07:04:33.939Z,36.20
2017-07-05T07:07:01.461Z,32.50
2017-07-05T07:09:28.986Z,35.90
2017-07-05T07:11:56.491Z,35.90
2017-07-05T07:14:24.017Z,36.70
2017-07-05T07:16:51.811Z,28.00
2017-07-05T07:19:19.353Z,27.40
2017-07-05T07:21:46.882Z,26.20
2017-07-05T07:24:14.685Z,23.10
2017-07-05T07:26:42.214Z,23.90
2017-07-05T07:29:09.726Z,24.40
2017-07-05T07:31:37.282Z,22.80
2017-07-05T07:34:04.835Z,21.80
2017-07-05T07:36:32.386Z,21.90
2017-07-05T07:38:59.941Z,18.70
2017-07-05T07:41:27.475Z,19.10
2017-07-05T07:43:55.003Z,22.80
2017-07-05T07:46:22.562Z,21.40
2017-07-05T07:48:50.099Z,22.20
2017-07-05T07:51:18.421Z,26.80
2017-07-05T07:53:45.991Z,26.70
2017-07-05T07:56:13.751Z,28.70
2017-07-05T07:58:41.282Z,32.90
2017-07-05T08:01:08.816Z,32.10
2017-07-05T08:03:37.336Z,33.40
2017-07-05T08:06:04.838Z,33.30
2017-07-05T08:08:33.161Z,45.00
2017-07-05T08:11:00.689Z,44.90
2017-07-05T08:13:28.496Z,39.20
2017-07-05T08:15:56.357Z,40.50
2017-07-05T08:18:23.871Z,38.30
2017-07-05T08:20:51.398Z,31.20
2017-07-05T08:23:18.968Z,28.90
2017-07-05T08:25:47.269Z,27.10
2017-07-05T08:28:15.006Z,26.30
2017-07-05T08:30:43.307Z,29.90
2017-07-05T08:33:10.876Z,30.80
2017-07-05T08:35:38.669Z,22.40
2017-07-05T08:38:06.201Z,22.20
2017-07-05T08:40:35.015Z,21.00
2017-07-05T08:43:02.643Z,20.40
2017-07-05T08:45:30.160Z,18.20
2017-07-05T08:47:58.461Z,19.50
2017-07-05T08:50:25.965Z,19.60
2017-07-05T08:52:53.491Z,22.20
2017-07-05T08:55:21.174Z,10.70
2017-07-05T08:57:49.035Z,13.40
2017-07-05T09:00:16.579Z,12.10
2017-07-05T09:02:44.106Z,16.20
2017-07-05T09:05:11.670Z,16.50
2017-07-05T09:07:39.201Z,14.70
2017-07-05T09:10:06.740Z,15.30
2017-07-05T09:12:34.270Z,18.00
2017-07-05T09:15:01.796Z,18.00
2017-07-05T09:17:29.656Z,18.60
2017-07-05T09:19:57.161Z,22.00
2017-07-05T09:22:25.016Z,25.60
2017-07-05T09:24:52.575Z,27.90
2017-07-05T09:27:20.145Z,28.90
2017-07-05T09:29:47.654Z,34.10
2017-07-05T09:32:15.198Z,38.10
2017-07-05T09:34:43.521Z,36.50
2017-07-05T09:37:11.021Z,35.20
2017-07-05T09:39:39.317Z,35.50
2017-07-05T09:42:07.113Z,35.40
2017-07-05T09:44:34.664Z,38.60
2017-07-05T09:47:02.177Z,39.30
2017-07-05T09:49:30.477Z,34.40
2017-07-05T09:51:58.005Z,34.00
2017-07-05T09:54:25.534Z,31.60
2017-07-05T09:56:53.077Z,30.40
2017-07-05T09:59:20.666Z,32.10
2017-07-05T10:01:48.176Z,29.70
2017-07-05T10:04:15.953Z,34.40
2017-07-05T10:06:43.850Z,34.40
2017-07-05T10:09:11.381Z,38.40
2017-07-05T10:11:38.914Z,38.00
2017-07-05T10:14:06.693Z,42.80
2017-07-05T10:16:34.224Z,40.10
2017-07-05T10:19:01.737Z,43.90
2017-07-05T10:21:29.312Z,45.20
2017-07-05T10:23:57.590Z,26.10
2017-07-05T10:26:25.109Z,26.30
2017-07-05T10:28:52.674Z,32.80
2017-07-05T10:31:20.182Z,27.70
2017-07-05T10:33:47.720Z,35.80
2017-07-05T10:36:15.489Z,35.40
2017-07-05T10:38:43.027Z,33.90
2017-07-05T10:41:11.306Z,34.40
2017-07-05T10:43:38.865Z,34.60
2017-07-05T10:46:07.193Z,34.00
2017-07-05T10:48:34.960Z,34.00
2017-07-05T10:51:02.821Z,37.70
2017-07-05T10:53:30.410Z,36.00
2017-07-05T10:55:57.945Z,38.60
2017-07-05T10:58:25.474Z,38.40
2017-07-05T11:00:53.035Z,39.10
2017-07-05T11:03:20.577Z,40.20
2017-07-05T11:05:48.101Z,42.60
2017-07-05T11:08:15.665Z,36.50
2017-07-05T11:10:43.969Z,38.80
2017-07-05T11:13:11.763Z,38.10
2017-07-05T11:15:39.273Z,36.90
2017-07-05T11:18:07.569Z,37.90
2017-07-05T11:20:35.119Z,37.80
2017-07-05T11:23:02.920Z,39.80
2017-07-05T11:25:30.465Z,42.60
2017-07-05T11:27:57.974Z,43.70
2017-07-05T11:30:26.614Z,54.70
2017-07-05T11:32:54.156Z,55.00
2017-07-05T11:35:21.713Z,54.20
2017-07-05T11:37:49.248Z,58.60
2017-07-05T11:40:16.787Z,57.30
2017-07-05T11:42:45.116Z,58.90
2017-07-05T11:45:12.613Z,59.30
2017-07-05T11:47:40.957Z,50.70
2017-07-05T11:50:08.449Z,50.60
2017-07-05T11:52:36.743Z,46.00
2017-07-05T11:55:04.306Z,45.90
2017-07-05T11:57:31.911Z,46.10
2017-07-05T11:59:59.473Z,40.00
2017-07-05T12:02:27.176Z,40.00
2017-07-05T12:04:54.707Z,36.60
2017-07-05T12:07:23.015Z,38.50
2017-07-05T12:09:50.586Z,38.40
2017-07-05T12:12:18.096Z,39.30
2017-07-05T12:14:45.650Z,44.70
2017-07-05T12:17:13.223Z,46.50
2017-07-05T12:19:41.814Z,56.80
2017-07-05T12:22:09.368Z,56.80
2017-07-05T12:24:37.663Z,56.90
2017-07-05T12:27:05.201Z,56.80
2017-07-05T12:29:33.502Z,58.90
2017-07-05T12:32:01.069Z,58.80
2017-07-05T12:34:28.861Z,56.50
2017-07-05T12:36:56.807Z,56.00
2017-07-05T12:39:24.569Z,59.10
2017-07-05T12:41:52.115Z,52.80
2017-07-05T12:44:19.654Z,54.50
2017-07-05T12:46:47.171Z,58.10
2017-07-05T12:49:14.732Z,61.80
2017-07-05T12:51:42.252Z,59.50
2017-07-05T12:54:10.118Z,54.70
2017-07-05T12:56:37.880Z,59.80
2017-07-05T12:59:05.395Z,58.70
2017-07-05T13:01:33.154Z,55.80
2017-07-05T13:04:01.462Z,51.20
2017-07-05T13:06:28.995Z,51.30
2017-07-05T13:08:56.589Z,51.80
2017-07-05T13:11:24.123Z,54.90
2017-07-05T13:13:51.650Z,57.70
2017-07-05T13:16:19.185Z,53.40
2017-07-05T13:18:46.706Z,55.10
2017-07-05T13:21:14.237Z,55.40
2017-07-05T13:23:41.770Z,55.80
2017-07-05T13:26:10.120Z,61.20
2017-07-05T13:28:37.708Z,61.20
2017-07-05T13:31:05.977Z,62.00
2017-07-05T13:33:33.547Z,62.10
2017-07-05T13:36:01.881Z,62.40
2017-07-05T13:38:29.449Z,62.40
2017-07-05T13:40:56.977Z,70.60
2017-07-05T13:43:24.487Z,68.60
2017-07-05T13:45:52.785Z,64.70
2017-07-05T13:48:20.309Z,64.70
2017-07-05T13:50:47.878Z,61.10
2017-07-05T13:53:16.171Z,61.30
2017-07-05T13:55:43.709Z,61.30
2017-07-05T13:58:12.034Z,56.10
2017-07-05T14:00:39.617Z,56.10
2017-07-05T14:03:07.117Z,54.40
2017-07-05T14:05:34.917Z,55.50
2017-07-05T14:08:02.466Z,54.60
2017-07-05T14:10:30.013Z,51.20
2017-07-05T14:12:57.533Z,47.10
2017-07-05T14:15:26.011Z,52.30
2017-07-05T14:17:54.326Z,45.80
2017-07-05T14:20:22.063Z,44.50
2017-07-05T14:22:50.992Z,48.20
2017-07-05T14:25:18.772Z,48.20
2017-07-05T14:27:46.386Z,50.60
2017-07-05T14:30:13.934Z,48.10
2017-07-05T14:32:42.424Z,50.30
2017-07-05T14:35:10.213Z,50.10
2017-07-05T14:37:38.086Z,54.00
2017-07-05T14:40:05.671Z,58.30
2017-07-05T14:42:33.192Z,58.70
2017-07-05T14:45:01.056Z,62.70
2017-07-05T14:47:28.562Z,57.00
2017-07-05T14:49:56.844Z,53.20
2017-07-05T14:52:25.133Z,50.90
2017-07-05T14:54:52.757Z,50.90
2017-07-05T14:57:20.525Z,50.90
2017-07-05T14:59:48.802Z,46.70
2017-07-05T15:02:17.122Z,46.10
2017-07-05T15:04:44.627Z,45.80
2017-07-05T15:07:12.178Z,43.40
2017-07-05T15:09:39.729Z,46.50
2017-07-05T15:12:07.230Z,48.30
2017-07-05T15:14:34.777Z,53.10
2017-07-05T15:17:03.045Z,51.90
2017-07-05T15:19:31.363Z,52.00
2017-07-05T15:21:58.890Z,51.90
2017-07-05T15:24:26.413Z,55.20
2017-07-05T15:26:53.914Z,54.40
2017-07-05T15:29:22.732Z,54.30
2017-07-05T15:31:50.657Z,55.20
2017-07-05T15:34:18.990Z,52.80
2017-07-05T15:36:47.005Z,53.60
2017-07-05T15:39:14.501Z,47.80
2017-07-05T15:41:42.209Z,51.60
2017-07-05T15:44:09.722Z,50.60
2017-07-05T15:46:37.281Z,50.80
2017-07-05T15:49:04.787Z,52.00
2017-07-05T15:51:32.363Z,48.90
2017-07-05T15:54:00.140Z,47.10
2017-07-05T15:56:27.905Z,51.30
2017-07-05T15:58:55.985Z,50.40
2017-07-05T16:01:24.308Z,54.20
2017-07-05T16:03:51.841Z,54.10
2017-07-05T16:06:20.221Z,55.60
2017-07-05T16:08:47.742Z,55.90
2017-07-05T16:11:15.274Z,50.60
2017-07-05T16:13:42.835Z,47.10
2017-07-05T16:16:10.361Z,46.70
2017-07-05T16:18:38.634Z,48.30
2017-07-05T16:21:06.157Z,48.30
2017-07-05T16:23:33.657Z,50.60
2017-07-05T16:26:03.301Z,50.80
2017-07-05T16:28:31.017Z,54.20
2017-07-05T16:30:59.330Z,56.00
2017-07-05T16:33:27.276Z,55.70
2017-07-05T16:35:55.174Z,52.20
2017-07-05T16:38:22.703Z,56.30
2017-07-05T16:40:51.158Z,54.80
2017-07-05T16:43:19.693Z,58.50
2017-07-05T16:45:47.202Z,58.40
2017-07-05T16:48:15.506Z,59.80
2017-07-05T16:50:43.009Z,59.40
2017-07-05T16:53:10.566Z,61.20
2017-07-05T16:55:38.098Z,63.10
2017-07-05T16:58:05.630Z,65.50
2017-07-05T17:00:33.151Z,67.40
2017-07-05T17:03:01.632Z,70.30
2017-07-05T17:05:29.194Z,70.10
2017-07-05T17:07:56.713Z,71.60
2017-07-05T17:10:24.569Z,71.80
2017-07-05T17:12:52.070Z,72.20
2017-07-05T17:15:20.737Z,69.20
2017-07-05T17:17:48.273Z,69.10
2017-07-05T17:20:15.938Z,69.50
2017-07-05T17:22:43.462Z,75.90
2017-07-05T17:25:11.049Z,75.00
2017-07-05T17:27:38.583Z,79.30
2017-07-05T17:30:06.085Z,74.40
2017-07-05T17:32:33.617Z,73.40
2017-07-05T17:35:01.174Z,71.70
2017-07-05T17:37:29.078Z,75.50
2017-07-05T17:39:57.413Z,78.00
2017-07-05T17:42:24.958Z,78.10
2017-07-05T17:44:52.481Z,83.40
2017-07-05T17:47:20.049Z,87.30
2017-07-05T17:49:47.621Z,91.00
2017-07-05T17:52:15.161Z,92.00
2017-07-05T17:54:42.661Z,94.50
2017-07-05T17:57:10.315Z,94.80
2017-07-05T17:59:38.065Z,98.20
2017-07-05T18:02:05.591Z,99.90
2017-07-05T18:04:33.093Z,98.90
2017-07-05T18:07:00.929Z,99.10
2017-07-05T18:09:28.478Z,99.90
2017-07-05T18:11:56.013Z,99.90
2017-07-05T18:14:24.278Z,99.90
2017-07-05T18:16:52.550Z,99.90
2017-07-05T18:19:20.841Z,99.90
2017-07-05T18:21:48.346Z,99.90
2017-07-05T18:24:16.201Z,99.90
2017-07-05T18:26:43.731Z,99.90
2017-07-05T18:29:11.265Z,99.90
2017-07-05T18:31:39.565Z,99.90
2017-07-05T18:34:07.098Z,99.90
2017-07-05T18:36:35.374Z,99.90
2017-07-05T18:39:03.705Z,99.90
2017-07-05T18:41:31.283Z,99.90
2017-07-05T18:43:58.839Z,99.90
2017-07-05T18:46:26.416Z,99.90
2017-07-05T18:48:54.693Z,99.90
2017-07-05T18:51:22.980Z,99.90
2017-07-05T18:53:50.785Z,99.90
2017-07-05T18:56:18.601Z,99.90
2017-07-05T18:58:46.126Z,99.90
2017-07-05T19:01:13.626Z,99.90
2017-07-05T19:03:41.300Z,99.90
2017-07-05T19:06:08.886Z,99.90
2017-07-05T19:08:36.423Z,99.90
2017-07-05T19:11:03.979Z,99.90
2017-07-05T19:13:31.702Z,99.90
2017-07-05T19:16:00.237Z,99.90
2017-07-05T19:18:28.042Z,99.90
2017-07-05T19:20:56.344Z,99.90
2017-07-05T19:23:23.925Z,99.90
2017-07-05T19:25:51.473Z,99.90
2017-07-05T19:28:19.169Z,99.90
2017-07-05T19:30:46.753Z,99.90
2017-07-05T19:33:15.317Z,99.90
2017-07-05T19:35:42.881Z,99.90
2017-07-05T19:38:10.471Z,99.90
2017-07-05T19:40:38.042Z,99.90
2017-07-05T19:43:05.655Z,99.90
2017-07-05T19:45:33.162Z,99.90
2017-07-05T19:48:00.740Z,99.90
2017-07-05T19:50:28.307Z,99.90
2017-07-05T19:52:56.749Z,99.90
2017-07-05T19:55:24.295Z,99.90
2017-07-05T19:57:52.251Z,99.90
2017-07-05T20:00:20.852Z,99.90
2017-07-05T20:02:49.011Z,99.90
2017-07-05T20:05:16.534Z,99.90
2017-07-05T20:07:44.379Z,99.90
2017-07-05T20:10:13.067Z,99.90
2017-07-05T20:12:40.848Z,99.90
2017-07-05T20:15:08.700Z,99.90
2017-07-05T20:17:37.703Z,99.90
2017-07-05T20:20:05.339Z,99.90
2017-07-05T20:22:33.008Z,99.90
2017-07-05T20:25:00.860Z,99.90
2017-07-05T20:27:28.891Z,99.90
2017-07-05T20:29:57.494Z,99.90
2017-07-05T20:32:27.388Z,99.90
2017-07-05T20:34:57.709Z,99.90
2017-07-05T20:37:25.399Z,99.90
2017-07-05T20:39:52.941Z,99.90
2017-07-05T20:42:20.490Z,99.90
2017-07-05T20:44:49.081Z,99.90
2017-07-05T20:47:16.972Z,99.90
2017-07-05T20:49:44.646Z,99.90
2017-07-05T20:52:12.248Z,99.90
2017-07-05T20:54:39.888Z,99.90
2017-07-05T20:57:08.321Z,99.90
2017-07-05T20:59:36.493Z,99.90
2017-07-05T21:02:04.113Z,99.90
2017-07-05T21:04:32.023Z,99.90
2017-07-05T21:06:59.891Z,99.90
2017-07-05T21:09:27.440Z,99.90
2017-07-05T21:11:55.180Z,99.90
2017-07-05T21:14:22.811Z,99.90
2017-07-05T21:16:51.478Z,99.90
2017-07-05T21:19:19.272Z,99.90
2017-07-05T21:21:47.203Z,99.90
2017-07-05T21:24:14.787Z,99.90
2017-07-05T21:26:42.469Z,99.90
2017-07-05T21:29:10.052Z,99.90
2017-07-05T21:31:37.663Z,99.90
2017-07-05T21:34:05.247Z,99.90
2017-07-05T21:36:32.830Z,99.90
2017-07-05T21:39:00.698Z,99.90
2017-07-05T21:41:29.601Z,99.90
2017-07-05T21:43:57.172Z,99.90
2017-07-05T21:46:24.809Z,99.90
2017-07-05T21:48:52.403Z,99.90
2017-07-05T21:51:19.968Z,99.90
2017-07-05T21:53:47.519Z,99.90
2017-07-05T21:56:15.094Z,99.90
2017-07-05T21:58:42.655Z,99.90
2017-07-05T22:01:10.233Z,99.90
2017-07-05T22:03:38.143Z,99.90
2017-07-05T22:06:05.719Z,99.90
2017-07-05T22:08:34.053Z,99.90
2017-07-05T22:11:01.667Z,99.90
2017-07-05T22:13:29.272Z,99.90
2017-07-05T22:15:57.136Z,99.90
2017-07-05T22:18:24.720Z,99.90
2017-07-05T22:20:52.275Z,99.90
2017-07-05T22:23:20.615Z,99.90
2017-07-05T22:25:48.488Z,99.90
2017-07-05T22:28:16.064Z,99.90
2017-07-05T22:30:43.667Z,99.90
2017-07-05T22:33:11.570Z,99.90
2017-07-05T22:35:39.119Z,99.90
2017-07-05T22:38:06.699Z,99.90
2017-07-05T22:40:34.285Z,99.90
2017-07-05T22:43:01.855Z,99.90
2017-07-05T22:45:30.241Z,99.90
2017-07-05T22:47:58.065Z,99.90
2017-07-05T22:50:25.639Z,99.90
2017-07-05T22:52:54.007Z,99.90
2017-07-05T22:55:21.604Z,99.90
2017-07-05T22:57:49.197Z,99.90
2017-07-05T23:00:16.786Z,99.90
2017-07-05T23:02:45.460Z,99.90
2017-07-05T23:05:13.803Z,99.90
2017-07-05T23:07:41.406Z,99.90
2017-07-05T23:10:10.032Z,99.90
2017-07-05T23:12:37.611Z,99.90
2017-07-05T23:15:05.183Z,99.90
2017-07-05T23:17:33.150Z,99.90
2017-07-05T23:20:00.749Z,99.90
2017-07-05T23:22:28.431Z,99.90
2017-07-05T23:24:55.951Z,99.90
2017-07-05T23:27:24.486Z,99.90
2017-07-05T23:29:52.024Z,99.90
2017-07-05T23:32:20.362Z,99.90
2017-07-05T23:34:48.993Z,99.90
2017-07-05T23:37:16.537Z,99.90
2017-07-05T23:39:44.092Z,99.90
2017-07-05T23:42:12.519Z,99.90
2017-07-05T23:44:40.110Z,99.90
2017-07-05T23:47:07.638Z,99.90
2017-07-05T23:49:35.971Z,99.90
2017-07-05T23:52:03.527Z,99.90
2017-07-05T23:54:31.035Z,99.90
2017-07-05T23:56:59.791Z,99.90
2017-07-05T23:59:27.350Z,99.90
